sensor_id;sensor_type;location;lat;lon;timestamp;pressure;altitude;pressure_sealevel;temperature;humidity
78613;BME280;67933;51.060;3.638;2024-03-23T00:53:59;101278.66;;;5.47;100.00
78613;BME280;67933;51.060;3.638;2024-03-23T00:56:24;101268.56;;;5.61;100.00
78613;BME280;67933;51.060;3.638;2024-03-23T00:58:50;101279.59;;;5.74;100.00
78613;BME280;67933;51.060;3.638;2024-03-23T01:01:15;101274.00;;;5.85;100.00
78613;BME280;67933;51.060;3.638;2024-03-23T01:03:41;101270.34;;;5.90;100.00
78613;BME280;67933;51.060;3.638;2024-03-23T01:06:06;101273.00;;;5.89;100.00
78613;BME280;67933;51.060;3.638;2024-03-23T01:08:32;101269.47;;;5.90;100.00
78613;BME280;67933;51.060;3.638;2024-03-23T01:10:58;101265.84;;;5.94;100.00
78613;BME280;67933;51.060;3.638;2024-03-23T01:13:24;101257.03;;;5.95;100.00
78613;BME280;67933;51.060;3.638;2024-03-23T01:15:50;101260.59;;;5.94;100.00
78613;BME280;67933;51.060;3.638;2024-03-23T01:18:17;101260.66;;;5.91;100.00
78613;BME280;67933;51.060;3.638;2024-03-23T01:20:43;101265.16;;;5.87;100.00
78613;BME280;67933;51.060;3.638;2024-03-23T01:23:08;101262.56;;;5.86;100.00
78613;BME280;67933;51.060;3.638;2024-03-23T01:25:33;101262.75;;;5.79;100.00
78613;BME280;67933;51.060;3.638;2024-03-23T01:27:59;101253.47;;;5.68;100.00
78613;BME280;67933;51.060;3.638;2024-03-23T01:30:24;101266.88;;;5.59;100.00
78613;BME280;67933;51.060;3.638;2024-03-23T01:32:49;101255.03;;;5.46;100.00
78613;BME280;67933;51.060;3.638;2024-03-23T01:35:15;101252.66;;;5.36;100.00
78613;BME280;67933;51.060;3.638;2024-03-23T01:37:40;101257.31;;;5.27;100.00
78613;BME280;67933;51.060;3.638;2024-03-23T01:40:06;101251.56;;;5.14;100.00
78613;BME280;67933;51.060;3.638;2024-03-23T01:42:32;101260.75;;;4.99;100.00
78613;BME280;67933;51.060;3.638;2024-03-23T01:44:57;101258.47;;;4.87;100.00
78613;BME280;67933;51.060;3.638;2024-03-23T01:47:22;101263.97;;;4.78;100.00
78613;BME280;67933;51.060;3.638;2024-03-23T01:49:48;101262.50;;;4.68;100.00
78613;BME280;67933;51.060;3.638;2024-03-23T01:52:13;101252.06;;;4.65;100.00
78613;BME280;67933;51.060;3.638;2024-03-23T01:54:40;101261.63;;;4.68;100.00
78613;BME280;67933;51.060;3.638;2024-03-23T01:57:06;101257.41;;;4.62;100.00
78613;BME280;67933;51.060;3.638;2024-03-23T01:59:32;101252.88;;;4.67;100.00
78613;BME280;67933;51.060;3.638;2024-03-23T02:01:57;101258.63;;;4.81;100.00
78613;BME280;67933;51.060;3.638;2024-03-23T02:04:23;101261.09;;;4.87;100.00
78613;BME280;67933;51.060;3.638;2024-03-23T02:06:48;101258.19;;;4.96;100.00
78613;BME280;67933;51.060;3.638;2024-03-23T02:09:14;101258.94;;;5.01;100.00
78613;BME280;67933;51.060;3.638;2024-03-23T02:11:40;101255.09;;;5.13;100.00
78613;BME280;67933;51.060;3.638;2024-03-23T02:14:06;101252.34;;;5.18;100.00
78613;BME280;67933;51.060;3.638;2024-03-23T02:16:33;101251.38;;;5.20;100.00
78613;BME280;67933;51.060;3.638;2024-03-23T02:18:58;101249.53;;;5.24;100.00
78613;BME280;67933;51.060;3.638;2024-03-23T02:21:23;101253.91;;;5.25;100.00
78613;BME280;67933;51.060;3.638;2024-03-23T02:23:49;101245.00;;;5.29;100.00
78613;BME280;67933;51.060;3.638;2024-03-23T02:26:14;101247.63;;;5.29;100.00
78613;BME280;67933;51.060;3.638;2024-03-23T02:28:40;101245.00;;;5.29;100.00
78613;BME280;67933;51.060;3.638;2024-03-23T02:31:06;101242.41;;;5.27;100.00
78613;BME280;67933;51.060;3.638;2024-03-23T02:33:31;101249.44;;;5.27;100.00
78613;BME280;67933;51.060;3.638;2024-03-23T02:35:58;101244.16;;;5.27;100.00
78613;BME280;67933;51.060;3.638;2024-03-23T02:38:23;101241.53;;;5.27;100.00
78613;BME280;67933;51.060;3.638;2024-03-23T02:40:49;101239.84;;;5.26;100.00
78613;BME280;67933;51.060;3.638;2024-03-23T02:43:14;101242.50;;;5.24;100.00
78613;BME280;67933;51.060;3.638;2024-03-23T02:45:40;101240.84;;;5.20;100.00
78613;BME280;67933;51.060;3.638;2024-03-23T02:48:05;101247.09;;;5.18;100.00
78613;BME280;67933;51.060;3.638;2024-03-23T02:50:31;101240.09;;;5.17;100.00
78613;BME280;67933;51.060;3.638;2024-03-23T02:52:56;101236.66;;;5.15;100.00
78613;BME280;67933;51.060;3.638;2024-03-23T02:55:21;101237.47;;;5.17;100.00
78613;BME280;67933;51.060;3.638;2024-03-23T02:57:47;101232.22;;;5.17;100.00
78613;BME280;67933;51.060;3.638;2024-03-23T03:00:12;101235.75;;;5.16;100.00
78613;BME280;67933;51.060;3.638;2024-03-23T03:02:38;101235.25;;;5.03;100.00
78613;BME280;67933;51.060;3.638;2024-03-23T03:05:04;101227.66;;;4.92;100.00
78613;BME280;67933;51.060;3.638;2024-03-23T03:07:31;101229.72;;;4.81;100.00
78613;BME280;67933;51.060;3.638;2024-03-23T03:09:56;101229.06;;;4.73;100.00
78613;BME280;67933;51.060;3.638;2024-03-23T03:12:22;101236.19;;;4.70;100.00
78613;BME280;67933;51.060;3.638;2024-03-23T03:14:47;101228.41;;;4.65;100.00
78613;BME280;67933;51.060;3.638;2024-03-23T03:17:13;101235.53;;;4.61;100.00
78613;BME280;67933;51.060;3.638;2024-03-23T03:19:40;101227.75;;;4.57;100.00
78613;BME280;67933;51.060;3.638;2024-03-23T03:22:05;101246.34;;;4.49;100.00
78613;BME280;67933;51.060;3.638;2024-03-23T03:24:30;101235.94;;;4.46;100.00
78613;BME280;67933;51.060;3.638;2024-03-23T03:26:56;101226.28;;;4.47;100.00
78613;BME280;67933;51.060;3.638;2024-03-23T03:29:23;101228.09;;;4.45;100.00
78613;BME280;67933;51.060;3.638;2024-03-23T03:31:48;101236.75;;;4.48;100.00
78613;BME280;67933;51.060;3.638;2024-03-23T03:34:15;101245.41;;;4.52;100.00
78613;BME280;67933;51.060;3.638;2024-03-23T03:36:40;101238.25;;;4.57;100.00
78613;BME280;67933;51.060;3.638;2024-03-23T03:39:06;101243.38;;;4.63;100.00
78613;BME280;67933;51.060;3.638;2024-03-23T03:41:32;101244.25;;;4.63;100.00
78613;BME280;67933;51.060;3.638;2024-03-23T03:43:58;101242.56;;;4.59;100.00
78613;BME280;67933;51.060;3.638;2024-03-23T03:46:28;101240.94;;;4.55;100.00
78613;BME280;67933;51.060;3.638;2024-03-23T03:48:56;101236.69;;;4.50;100.00
78613;BME280;67933;51.060;3.638;2024-03-23T03:51:22;101238.44;;;4.51;100.00
78613;BME280;67933;51.060;3.638;2024-03-23T03:53:47;101240.97;;;4.54;100.00
78613;BME280;67933;51.060;3.638;2024-03-23T03:56:13;101232.06;;;4.59;100.00
78613;BME280;67933;51.060;3.638;2024-03-23T03:58:38;101244.31;;;4.60;100.00
78613;BME280;67933;51.060;3.638;2024-03-23T04:01:05;101242.75;;;4.53;100.00
78613;BME280;67933;51.060;3.638;2024-03-23T04:03:30;101244.50;;;4.53;100.00
78613;BME280;67933;51.060;3.638;2024-03-23T04:05:56;101247.34;;;4.45;100.00
78613;BME280;67933;51.060;3.638;2024-03-23T04:08:21;101247.34;;;4.45;100.00
78613;BME280;67933;51.060;3.638;2024-03-23T04:10:47;101249.91;;;4.48;100.00
78613;BME280;67933;51.060;3.638;2024-03-23T04:13:13;101241.84;;;4.54;100.00
78613;BME280;67933;51.060;3.638;2024-03-23T04:15:39;101246.03;;;4.61;100.00
78613;BME280;67933;51.060;3.638;2024-03-23T04:18:04;101241.47;;;4.68;100.00
78613;BME280;67933;51.060;3.638;2024-03-23T04:20:30;101238.81;;;4.70;100.00
78613;BME280;67933;51.060;3.638;2024-03-23T04:22:55;101234.44;;;4.69;100.00
78613;BME280;67933;51.060;3.638;2024-03-23T04:25:20;101238.84;;;4.68;100.00
78613;BME280;67933;51.060;3.638;2024-03-23T04:27:46;101239.75;;;4.67;100.00
78613;BME280;67933;51.060;3.638;2024-03-23T04:30:12;101231.97;;;4.64;100.00
78613;BME280;67933;51.060;3.638;2024-03-23T04:32:38;101244.25;;;4.63;100.00
78613;BME280;67933;51.060;3.638;2024-03-23T04:35:04;101241.53;;;4.65;100.00
78613;BME280;67933;51.060;3.638;2024-03-23T04:37:35;101236.38;;;4.62;100.00
78613;BME280;67933;51.060;3.638;2024-03-23T04:40:01;101240.78;;;4.61;100.00
78613;BME280;67933;51.060;3.638;2024-03-23T04:42:27;101241.66;;;4.62;100.00
78613;BME280;67933;51.060;3.638;2024-03-23T04:44:53;101243.47;;;4.58;100.00
78613;BME280;67933;51.060;3.638;2024-03-23T04:47:18;101246.31;;;4.51;100.00
78613;BME280;67933;51.060;3.638;2024-03-23T04:49:43;101242.94;;;4.46;100.00
78613;BME280;67933;51.060;3.638;2024-03-23T04:52:09;101237.69;;;4.46;100.00
78613;BME280;67933;51.060;3.638;2024-03-23T04:54:34;101249.75;;;4.53;100.00
78613;BME280;67933;51.060;3.638;2024-03-23T04:56:59;101235.59;;;4.58;100.00
78613;BME280;67933;51.060;3.638;2024-03-23T04:59:25;101237.13;;;4.67;100.00
78613;BME280;67933;51.060;3.638;2024-03-23T05:01:50;101240.44;;;4.74;100.00
78613;BME280;67933;51.060;3.638;2024-03-23T05:04:16;101238.47;;;4.82;100.00
78613;BME280;67933;51.060;3.638;2024-03-23T05:06:41;101241.66;;;4.93;100.00
78613;BME280;67933;51.060;3.638;2024-03-23T05:09:07;101239.78;;;4.96;100.00
78613;BME280;67933;51.060;3.638;2024-03-23T05:11:35;101243.97;;;5.03;100.00
78613;BME280;67933;51.060;3.638;2024-03-23T05:14:00;101242.16;;;5.06;100.00
78613;BME280;67933;51.060;3.638;2024-03-23T05:16:28;101236.84;;;5.09;100.00
78613;BME280;67933;51.060;3.638;2024-03-23T05:18:53;101242.09;;;5.09;100.00
78613;BME280;67933;51.060;3.638;2024-03-23T05:21:18;101241.97;;;5.12;100.00
78613;BME280;67933;51.060;3.638;2024-03-23T05:23:44;101245.78;;;5.03;100.00
78613;BME280;67933;51.060;3.638;2024-03-23T05:26:09;101230.03;;;5.01;100.00
78613;BME280;67933;51.060;3.638;2024-03-23T05:28:35;101238.16;;;4.92;100.00
78613;BME280;67933;51.060;3.638;2024-03-23T05:31:00;101235.59;;;4.91;100.00
78613;BME280;67933;51.060;3.638;2024-03-23T05:33:26;101235.50;;;4.94;100.00
78613;BME280;67933;51.060;3.638;2024-03-23T05:35:59;101237.91;;;5.01;100.00
78613;BME280;67933;51.060;3.638;2024-03-23T05:38:25;101237.75;;;5.08;100.00
78613;BME280;67933;51.060;3.638;2024-03-23T05:43:21;101237.09;;;4.99;100.00
78613;BME280;67933;51.060;3.638;2024-03-23T05:45:57;101239.00;;;4.94;100.00
78613;BME280;67933;51.060;3.638;2024-03-23T05:48:23;101241.63;;;4.94;100.00
78613;BME280;67933;51.060;3.638;2024-03-23T05:50:49;101237.16;;;4.96;100.00
78613;BME280;67933;51.060;3.638;2024-03-23T05:53:15;101241.41;;;5.02;100.00
78613;BME280;67933;51.060;3.638;2024-03-23T05:55:41;101245.47;;;5.12;100.00
78613;BME280;67933;51.060;3.638;2024-03-23T05:58:06;101244.34;;;5.21;100.00
78613;BME280;67933;51.060;3.638;2024-03-23T06:00:32;101248.44;;;5.31;100.00
78613;BME280;67933;51.060;3.638;2024-03-23T06:02:57;101244.66;;;5.41;100.00
78613;BME280;67933;51.060;3.638;2024-03-23T06:05:22;101247.28;;;5.41;100.00
78613;BME280;67933;51.060;3.638;2024-03-23T06:07:49;101249.91;;;5.41;100.00
78613;BME280;67933;51.060;3.638;2024-03-23T06:10:15;101255.25;;;5.38;100.00
78613;BME280;67933;51.060;3.638;2024-03-23T06:12:41;101252.84;;;5.30;100.00
78613;BME280;67933;51.060;3.638;2024-03-23T06:15:07;101254.09;;;5.19;100.00
78613;BME280;67933;51.060;3.638;2024-03-23T06:17:36;101254.41;;;5.07;100.00
78613;BME280;67933;51.060;3.638;2024-03-23T06:20:01;101259.84;;;5.00;100.00
78613;BME280;67933;51.060;3.638;2024-03-23T06:22:27;101258.41;;;4.89;100.00
78613;BME280;67933;51.060;3.638;2024-03-23T06:24:52;101250.81;;;4.80;100.00
78613;BME280;67933;51.060;3.638;2024-03-23T06:27:17;101260.50;;;4.78;100.00
78613;BME280;67933;51.060;3.638;2024-03-23T06:29:43;101262.28;;;4.76;100.00
78613;BME280;67933;51.060;3.638;2024-03-23T06:32:08;101271.09;;;4.73;100.00
78613;BME280;67933;51.060;3.638;2024-03-23T06:34:34;101261.53;;;4.72;100.00
78613;BME280;67933;51.060;3.638;2024-03-23T06:37:00;101260.75;;;4.67;100.00
78613;BME280;67933;51.060;3.638;2024-03-23T06:39:25;101258.97;;;4.69;100.00
78613;BME280;67933;51.060;3.638;2024-03-23T06:41:54;101265.44;;;4.88;100.00
78613;BME280;67933;51.060;3.638;2024-03-23T06:44:20;101269.97;;;5.14;100.00
78613;BME280;67933;51.060;3.638;2024-03-23T06:46:45;101263.97;;;5.40;100.00
78613;BME280;67933;51.060;3.638;2024-03-23T06:49:11;101263.59;;;5.52;100.00
78613;BME280;67933;51.060;3.638;2024-03-23T06:51:37;101256.28;;;5.62;100.00
78613;BME280;67933;51.060;3.638;2024-03-23T06:54:05;101269.00;;;5.75;100.00
78613;BME280;67933;51.060;3.638;2024-03-23T06:56:30;101269.53;;;5.88;100.00
78613;BME280;67933;51.060;3.638;2024-03-23T06:58:59;101275.50;;;5.93;100.00
78613;BME280;67933;51.060;3.638;2024-03-23T07:01:25;101274.56;;;5.96;100.00
78613;BME280;67933;51.060;3.638;2024-03-23T07:03:50;101275.31;;;5.99;100.00
78613;BME280;67933;51.060;3.638;2024-03-23T07:06:15;101263.91;;;5.99;100.00
78613;BME280;67933;51.060;3.638;2024-03-23T07:08:41;101279.84;;;5.96;100.00
78613;BME280;67933;51.060;3.638;2024-03-23T07:11:06;101279.22;;;5.88;100.00
78613;BME280;67933;51.060;3.638;2024-03-23T07:13:31;101288.72;;;5.92;100.00
78613;BME280;67933;51.060;3.638;2024-03-23T07:15:57;101287.03;;;6.17;100.00
78613;BME280;67933;51.060;3.638;2024-03-23T07:18:23;101282.88;;;6.63;100.00
78613;BME280;67933;51.060;3.638;2024-03-23T07:20:56;101286.19;;;7.17;100.00
78613;BME280;67933;51.060;3.638;2024-03-23T07:23:22;101283.56;;;7.64;100.00
78613;BME280;67933;51.060;3.638;2024-03-23T07:26:05;101281.06;;;8.04;100.00
78613;BME280;67933;51.060;3.638;2024-03-23T07:28:31;101290.22;;;7.74;100.00
78613;BME280;67933;51.060;3.638;2024-03-23T07:31:08;101287.78;;;7.21;100.00
78613;BME280;67933;51.060;3.638;2024-03-23T07:33:42;101282.19;;;6.31;100.00
78613;BME280;67933;51.060;3.638;2024-03-23T07:36:07;101281.53;;;5.97;100.00
78613;BME280;67933;51.060;3.638;2024-03-23T07:38:33;101283.84;;;5.78;100.00
78613;BME280;67933;51.060;3.638;2024-03-23T07:41:12;101282.44;;;5.66;100.00
78613;BME280;67933;51.060;3.638;2024-03-23T07:43:38;101277.50;;;5.57;100.00
78613;BME280;67933;51.060;3.638;2024-03-23T07:46:05;101281.88;;;6.40;100.00
78613;BME280;67933;51.060;3.638;2024-03-23T07:48:31;101271.34;;;7.83;100.00
78613;BME280;67933;51.060;3.638;2024-03-23T07:50:57;101271.56;;;8.64;100.00
78613;BME280;67933;51.060;3.638;2024-03-23T07:53:23;101274.16;;;9.44;100.00
78613;BME280;67933;51.060;3.638;2024-03-23T07:56:02;101266.44;;;10.13;100.00
78613;BME280;67933;51.060;3.638;2024-03-23T07:58:28;101272.53;;;10.51;100.00
78613;BME280;67933;51.060;3.638;2024-03-23T08:01:12;101260.28;;;10.65;100.00
78613;BME280;67933;51.060;3.638;2024-03-23T08:03:41;101265.84;;;11.11;100.00
78613;BME280;67933;51.060;3.638;2024-03-23T08:06:10;101254.81;;;11.67;100.00
78613;BME280;67933;51.060;3.638;2024-03-23T08:08:36;101249.66;;;11.95;100.00
78613;BME280;67933;51.060;3.638;2024-03-23T08:11:02;101244.75;;;12.49;100.00
78613;BME280;67933;51.060;3.638;2024-03-23T08:13:28;101241.78;;;12.69;100.00
78613;BME280;67933;51.060;3.638;2024-03-23T08:16:01;101244.13;;;13.32;100.00
78613;BME280;67933;51.060;3.638;2024-03-23T08:18:27;101237.81;;;13.62;100.00
78613;BME280;67933;51.060;3.638;2024-03-23T08:21:05;101241.94;;;13.53;100.00
78613;BME280;67933;51.060;3.638;2024-03-23T08:23:35;101240.34;;;13.77;100.00
78613;BME280;67933;51.060;3.638;2024-03-23T08:26:11;101247.34;;;12.05;100.00
78613;BME280;67933;51.060;3.638;2024-03-23T08:28:38;101256.91;;;10.27;100.00
78613;BME280;67933;51.060;3.638;2024-03-23T08:31:07;101257.28;;;9.07;100.00
78613;BME280;67933;51.060;3.638;2024-03-23T08:33:33;101257.38;;;8.45;100.00
78613;BME280;67933;51.060;3.638;2024-03-23T08:36:01;101268.84;;;9.25;100.00
78613;BME280;67933;51.060;3.638;2024-03-23T08:38:27;101260.41;;;9.54;100.00
78613;BME280;67933;51.060;3.638;2024-03-23T08:43:25;101262.53;;;10.90;100.00
78613;BME280;67933;51.060;3.638;2024-03-23T08:45:51;101254.13;;;11.95;100.00
78613;BME280;67933;51.060;3.638;2024-03-23T08:48:17;101239.16;;;13.12;100.00
78613;BME280;67933;51.060;3.638;2024-03-23T08:50:43;101245.28;;;11.94;100.00
78613;BME280;67933;51.060;3.638;2024-03-23T08:53:08;101252.97;;;12.60;100.00
78613;BME280;67933;51.060;3.638;2024-03-23T08:55:34;101247.78;;;12.43;98.54
78613;BME280;67933;51.060;3.638;2024-03-23T08:58:00;101255.16;;;11.92;100.00
78613;BME280;67933;51.060;3.638;2024-03-23T09:00:26;101257.19;;;11.72;100.00
78613;BME280;67933;51.060;3.638;2024-03-23T09:02:51;101258.59;;;11.79;95.94
78613;BME280;67933;51.060;3.638;2024-03-23T09:05:17;101260.34;;;11.47;100.00
78613;BME280;67933;51.060;3.638;2024-03-23T09:07:42;101267.78;;;11.07;100.00
78613;BME280;67933;51.060;3.638;2024-03-23T09:10:07;101266.63;;;12.09;94.29
78613;BME280;67933;51.060;3.638;2024-03-23T09:12:33;101264.78;;;13.15;92.17
78613;BME280;67933;51.060;3.638;2024-03-23T09:14:59;101255.91;;;13.57;91.86
78613;BME280;67933;51.060;3.638;2024-03-23T09:17:25;101263.22;;;13.67;96.42
78613;BME280;67933;51.060;3.638;2024-03-23T09:19:50;101277.66;;;12.92;93.24
78613;BME280;67933;51.060;3.638;2024-03-23T09:22:15;101275.81;;;10.90;95.90
78613;BME280;67933;51.060;3.638;2024-03-23T09:24:41;101282.31;;;9.77;100.00
78613;BME280;67933;51.060;3.638;2024-03-23T09:27:06;101276.63;;;9.67;100.00
78613;BME280;67933;51.060;3.638;2024-03-23T09:29:31;101278.75;;;9.78;100.00
78613;BME280;67933;51.060;3.638;2024-03-23T09:31:57;101270.03;;;10.82;100.00
78613;BME280;67933;51.060;3.638;2024-03-23T09:34:22;101263.34;;;12.35;89.79
78613;BME280;67933;51.060;3.638;2024-03-23T09:36:51;101258.47;;;13.58;85.17
78613;BME280;67933;51.060;3.638;2024-03-23T09:39:17;101258.44;;;14.40;80.59
78613;BME280;67933;51.060;3.638;2024-03-23T09:41:42;101269.94;;;13.46;82.12
78613;BME280;67933;51.060;3.638;2024-03-23T09:44:08;101255.22;;;15.13;89.98
78613;BME280;67933;51.060;3.638;2024-03-23T09:46:33;101284.13;;;14.55;62.43
78613;BME280;67933;51.060;3.638;2024-03-23T09:49:01;101265.56;;;12.87;67.47
78613;BME280;67933;51.060;3.638;2024-03-23T09:51:30;101264.06;;;12.97;64.64
78613;BME280;67933;51.060;3.638;2024-03-23T09:53:55;101267.13;;;11.52;70.87
78613;BME280;67933;51.060;3.638;2024-03-23T09:56:21;101273.09;;;11.07;76.94
78613;BME280;67933;51.060;3.638;2024-03-23T09:58:46;101278.91;;;10.29;78.31
78613;BME280;67933;51.060;3.638;2024-03-23T10:01:12;101253.22;;;11.47;76.92
78613;BME280;67933;51.060;3.638;2024-03-23T10:03:44;101259.41;;;13.00;67.47
78613;BME280;67933;51.060;3.638;2024-03-23T10:06:10;101263.69;;;13.74;62.71
78613;BME280;67933;51.060;3.638;2024-03-23T10:08:35;101254.34;;;14.35;62.11
78613;BME280;67933;51.060;3.638;2024-03-23T10:11:13;101244.00;;;14.82;61.50
78613;BME280;67933;51.060;3.638;2024-03-23T10:13:41;101238.44;;;16.09;62.73
78613;BME280;67933;51.060;3.638;2024-03-23T10:16:08;101234.66;;;16.35;58.20
78613;BME280;67933;51.060;3.638;2024-03-23T10:18:37;101235.81;;;15.96;54.96
78613;BME280;67933;51.060;3.638;2024-03-23T10:23:34;101243.94;;;14.44;56.94
78613;BME280;67933;51.060;3.638;2024-03-23T10:26:22;101234.16;;;13.77;60.47
78613;BME280;67933;51.060;3.638;2024-03-23T10:29:00;101233.34;;;12.17;68.78
78613;BME280;67933;51.060;3.638;2024-03-23T10:31:30;101239.47;;;12.63;68.51
78613;BME280;67933;51.060;3.638;2024-03-23T10:33:57;101231.72;;;12.89;67.91
78613;BME280;67933;51.060;3.638;2024-03-23T10:36:23;101233.06;;;11.76;68.31
78613;BME280;67933;51.060;3.638;2024-03-23T10:38:54;101230.44;;;11.59;67.65
78613;BME280;67933;51.060;3.638;2024-03-23T10:41:19;101232.38;;;14.17;63.72
78613;BME280;67933;51.060;3.638;2024-03-23T10:43:46;101225.56;;;15.41;54.65
78613;BME280;67933;51.060;3.638;2024-03-23T10:46:12;101229.56;;;16.32;54.42
78613;BME280;67933;51.060;3.638;2024-03-23T10:48:37;101222.41;;;16.09;57.41
78613;BME280;67933;51.060;3.638;2024-03-23T10:51:04;101236.25;;;14.40;60.45
78613;BME280;67933;51.060;3.638;2024-03-23T10:53:32;101227.94;;;13.49;62.44
78613;BME280;67933;51.060;3.638;2024-03-23T10:55:59;101220.31;;;12.43;64.47
78613;BME280;67933;51.060;3.638;2024-03-23T10:58:30;101230.13;;;12.56;68.73
78613;BME280;67933;51.060;3.638;2024-03-23T11:00:57;101210.84;;;15.23;64.18
78613;BME280;67933;51.060;3.638;2024-03-23T11:03:36;101212.28;;;16.36;56.81
78613;BME280;67933;51.060;3.638;2024-03-23T11:06:04;101208.09;;;17.24;53.26
78613;BME280;67933;51.060;3.638;2024-03-23T11:08:31;101207.09;;;16.92;53.80
78613;BME280;67933;51.060;3.638;2024-03-23T11:11:18;101197.41;;;16.67;53.20
78613;BME280;67933;51.060;3.638;2024-03-23T11:13:47;101195.66;;;17.23;52.79
78613;BME280;67933;51.060;3.638;2024-03-23T11:16:24;101184.09;;;15.35;55.20
78613;BME280;67933;51.060;3.638;2024-03-23T11:18:50;101183.50;;;16.16;57.56
78613;BME280;67933;51.060;3.638;2024-03-23T11:21:54;101193.16;;;14.32;55.19
78613;BME280;67933;51.060;3.638;2024-03-23T11:24:20;101188.06;;;14.02;59.41
78613;BME280;67933;51.060;3.638;2024-03-23T11:26:46;101185.50;;;12.61;63.28
78613;BME280;67933;51.060;3.638;2024-03-23T11:29:15;101194.34;;;11.71;66.66
78613;BME280;67933;51.060;3.638;2024-03-23T11:34:12;101181.69;;;14.17;61.07
78613;BME280;67933;51.060;3.638;2024-03-23T11:36:37;101177.13;;;13.38;63.15
78613;BME280;67933;51.060;3.638;2024-03-23T11:39:32;101177.28;;;12.64;62.74
78613;BME280;67933;51.060;3.638;2024-03-23T11:41:57;101179.41;;;14.38;59.65
78613;BME280;67933;51.060;3.638;2024-03-23T11:44:25;101162.78;;;15.59;58.59
78613;BME280;67933;51.060;3.638;2024-03-23T11:46:51;101162.88;;;16.05;54.45
78613;BME280;67933;51.060;3.638;2024-03-23T11:49:21;101169.06;;;15.71;50.77
78613;BME280;67933;51.060;3.638;2024-03-23T11:51:51;101162.25;;;15.54;55.98
78613;BME280;67933;51.060;3.638;2024-03-23T11:54:20;101168.25;;;14.83;49.66
78613;BME280;67933;51.060;3.638;2024-03-23T11:56:59;101155.94;;;13.23;58.15
78613;BME280;67933;51.060;3.638;2024-03-23T11:59:31;101160.38;;;12.07;60.60
78613;BME280;67933;51.060;3.638;2024-03-23T12:01:57;101170.28;;;11.42;63.04
78613;BME280;67933;51.060;3.638;2024-03-23T12:04:29;101159.56;;;11.60;63.00
78613;BME280;67933;51.060;3.638;2024-03-23T12:09:36;101147.59;;;15.47;58.56
78613;BME280;67933;51.060;3.638;2024-03-23T12:12:28;101144.47;;;16.71;52.58
78613;BME280;67933;51.060;3.638;2024-03-23T12:15:05;101144.09;;;16.18;50.56
78613;BME280;67933;51.060;3.638;2024-03-23T12:17:31;101149.91;;;14.26;52.33
78613;BME280;67933;51.060;3.638;2024-03-23T12:19:57;101145.53;;;13.04;59.30
78613;BME280;67933;51.060;3.638;2024-03-23T12:22:23;101139.78;;;12.25;61.64
78613;BME280;67933;51.060;3.638;2024-03-23T12:24:49;101149.06;;;12.18;65.59
78613;BME280;67933;51.060;3.638;2024-03-23T12:27:15;101140.25;;;12.76;64.85
78613;BME280;67933;51.060;3.638;2024-03-23T12:29:41;101132.44;;;13.15;62.59
78613;BME280;67933;51.060;3.638;2024-03-23T12:32:08;101133.44;;;13.68;60.52
78613;BME280;67933;51.060;3.638;2024-03-23T12:34:33;101126.06;;;14.63;60.20
78613;BME280;67933;51.060;3.638;2024-03-23T12:36:59;101135.94;;;15.12;55.82
78613;BME280;67933;51.060;3.638;2024-03-23T12:39:24;101118.22;;;16.06;56.20
78613;BME280;67933;51.060;3.638;2024-03-23T12:41:50;101129.59;;;13.99;55.71
78613;BME280;67933;51.060;3.638;2024-03-23T12:44:17;101123.00;;;15.06;54.60
78613;BME280;67933;51.060;3.638;2024-03-23T12:46:42;101123.28;;;15.50;52.80
78613;BME280;67933;51.060;3.638;2024-03-23T12:49:08;101122.25;;;15.76;51.15
78613;BME280;67933;51.060;3.638;2024-03-23T12:51:33;101116.22;;;16.78;47.84
78613;BME280;67933;51.060;3.638;2024-03-23T12:53:59;101112.06;;;16.63;50.20
78613;BME280;67933;51.060;3.638;2024-03-23T12:56:24;101117.09;;;14.39;53.54
78613;BME280;67933;51.060;3.638;2024-03-23T12:58:50;101112.19;;;14.71;53.34
78613;BME280;67933;51.060;3.638;2024-03-23T13:01:19;101112.28;;;14.69;52.97
78613;BME280;67933;51.060;3.638;2024-03-23T13:03:48;101121.31;;;14.29;53.73
78613;BME280;67933;51.060;3.638;2024-03-23T13:06:14;101106.31;;;13.34;58.79
78613;BME280;67933;51.060;3.638;2024-03-23T13:08:39;101102.22;;;12.59;62.04
78613;BME280;67933;51.060;3.638;2024-03-23T13:11:08;101099.06;;;11.17;64.07
78613;BME280;67933;51.060;3.638;2024-03-23T13:13:38;101096.38;;;11.80;65.66
78613;BME280;67933;51.060;3.638;2024-03-23T13:16:04;101097.84;;;12.44;62.75
78613;BME280;67933;51.060;3.638;2024-03-23T13:18:31;101099.72;;;12.42;64.88
78613;BME280;67933;51.060;3.638;2024-03-23T13:20:56;101086.94;;;12.05;63.47
78613;BME280;67933;51.060;3.638;2024-03-23T13:23:22;101081.75;;;11.87;60.46
78613;BME280;67933;51.060;3.638;2024-03-23T13:28:18;101066.06;;;11.53;58.75
78613;BME280;67933;51.060;3.638;2024-03-23T13:30:53;101062.97;;;13.18;55.29
78613;BME280;67933;51.060;3.638;2024-03-23T13:33:19;101063.88;;;15.47;52.01
78613;BME280;67933;51.060;3.638;2024-03-23T13:35:52;101051.94;;;15.27;50.07
78613;BME280;67933;51.060;3.638;2024-03-23T13:38:17;101052.72;;;15.76;49.17
78613;BME280;67933;51.060;3.638;2024-03-23T13:40:53;101051.91;;;15.87;49.34
78613;BME280;67933;51.060;3.638;2024-03-23T13:43:27;101044.94;;;16.53;49.01
78613;BME280;67933;51.060;3.638;2024-03-23T13:45:59;101044.69;;;17.96;46.66
78613;BME280;67933;51.060;3.638;2024-03-23T13:48:27;101049.34;;;15.97;49.34
78613;BME280;67933;51.060;3.638;2024-03-23T13:51:03;101051.81;;;14.05;53.39
78613;BME280;67933;51.060;3.638;2024-03-23T13:53:29;101041.69;;;13.58;54.87
78613;BME280;67933;51.060;3.638;2024-03-23T13:55:55;101038.03;;;12.64;56.34
78613;BME280;67933;51.060;3.638;2024-03-23T13:58:21;101043.84;;;12.00;59.83